createdAt,value
2022-07-26T00:03:26.566Z,26.89
2022-07-26T00:08:19.766Z,26.48
2022-07-26T00:13:14.717Z,26.48
2022-07-26T00:18:12.154Z,26.36
2022-07-26T00:23:05.643Z,26.17
2022-07-26T00:27:58.842Z,26.07
2022-07-26T00:32:53.921Z,25.97
2022-07-26T00:37:48.671Z,25.99
2022-07-26T00:42:42.266Z,25.43
2022-07-26T00:47:36.003Z,25.55
2022-07-26T00:52:30.837Z,25.59
2022-07-26T00:57:24.757Z,25.54
2022-07-26T01:02:18.625Z,25.31
2022-07-26T01:07:14.697Z,25.38
2022-07-26T01:12:14.400Z,25.20
2022-07-26T01:17:07.694Z,25.11
2022-07-26T01:22:02.242Z,24.89
2022-07-26T01:26:57.016Z,24.91
2022-07-26T01:31:50.596Z,24.72
2022-07-26T01:36:43.803Z,24.64
2022-07-26T01:53:53.405Z,24.45
2022-07-26T01:58:48.998Z,23.76
2022-07-26T02:03:55.902Z,23.93
2022-07-26T02:09:34.064Z,24.16
2022-07-26T02:14:40.610Z,23.53
2022-07-26T02:54:58.745Z,23.04
2022-07-26T03:06:16.342Z,22.76
2022-07-26T03:12:12.730Z,23.78
2022-07-26T03:17:09.115Z,22.90
2022-07-26T03:22:26.477Z,23.36
2022-07-26T03:27:22.438Z,22.73
2022-07-26T03:38:33.721Z,23.30
2022-07-26T03:43:52.324Z,22.51
2022-07-26T03:49:16.584Z,22.63
2022-07-26T03:54:17.055Z,22.46
2022-07-26T03:59:18.838Z,23.37
2022-07-26T04:11:22.972Z,24.30
2022-07-26T04:36:24.311Z,24.47
2022-07-26T04:41:20.228Z,24.88
2022-07-26T04:46:14.058Z,24.40
2022-07-26T04:51:07.773Z,25.37
2022-07-26T04:56:01.209Z,25.13
2022-07-26T05:01:09.145Z,25.45
2022-07-26T05:06:06.137Z,25.69
2022-07-26T05:10:59.762Z,25.34
2022-07-26T05:16:01.839Z,25.97
2022-07-26T05:21:23.506Z,24.73
2022-07-26T05:26:32.714Z,26.40
2022-07-26T05:31:28.321Z,25.40
2022-07-26T05:36:25.788Z,26.22
2022-07-26T05:41:24.851Z,25.94
2022-07-26T05:46:22.547Z,26.95
2022-07-26T05:51:19.988Z,25.92
2022-07-26T05:56:25.182Z,26.91
2022-07-26T06:01:22.121Z,26.38
2022-07-26T06:06:20.547Z,27.46
2022-07-26T06:11:14.590Z,27.97
2022-07-26T06:16:09.816Z,27.59
2022-07-26T06:21:04.751Z,27.53
2022-07-26T06:25:59.476Z,27.60
2022-07-26T06:30:57.875Z,28.60
2022-07-26T06:35:54.688Z,27.96
2022-07-26T06:40:55.775Z,28.92
2022-07-26T06:45:54.173Z,29.37
2022-07-26T06:50:50.558Z,29.06
2022-07-26T06:55:45.033Z,29.63
2022-07-26T07:00:40.507Z,29.42
2022-07-26T07:05:36.811Z,28.97
2022-07-26T07:10:32.844Z,29.14
2022-07-26T07:15:30.007Z,29.25
2022-07-26T07:20:25.445Z,30.40
2022-07-26T07:25:27.375Z,30.05
2022-07-26T07:30:28.052Z,30.50
2022-07-26T07:35:24.304Z,30.27
2022-07-26T07:40:27.753Z,30.65
2022-07-26T07:45:24.780Z,31.04
2022-07-26T07:50:28.516Z,31.50
2022-07-26T07:55:41.410Z,31.79
2022-07-26T08:00:42.448Z,31.42
2022-07-26T08:05:40.327Z,31.62
2022-07-26T08:10:51.777Z,32.50
2022-07-26T08:15:46.280Z,32.88
2022-07-26T08:20:46.414Z,33.48
2022-07-26T08:25:55.106Z,33.69
2022-07-26T08:30:53.166Z,34.22
2022-07-26T08:35:58.629Z,35.69
2022-07-26T08:40:54.801Z,35.62
2022-07-26T08:45:51.008Z,36.40
2022-07-26T08:50:55.541Z,37.47
2022-07-26T08:56:06.802Z,37.99
2022-07-26T09:01:14.393Z,38.18
2022-07-26T09:06:20.680Z,38.92
2022-07-26T09:11:33.889Z,38.74
2022-07-26T09:16:31.264Z,39.77
2022-07-26T09:21:31.152Z,39.37
2022-07-26T09:26:32.193Z,38.74
2022-07-26T09:31:25.777Z,38.60
2022-07-26T09:36:25.070Z,39.44
2022-07-26T09:41:20.698Z,39.30
2022-07-26T09:46:21.519Z,38.77
2022-07-26T09:51:44.819Z,38.26
2022-07-26T09:56:47.050Z,37.98
2022-07-26T10:01:43.152Z,37.36
2022-07-26T10:06:36.884Z,37.49
2022-07-26T10:11:40.331Z,36.97
2022-07-26T10:16:34.591Z,37.07
2022-07-26T10:21:31.602Z,38.32
2022-07-26T10:26:45.790Z,38.95
2022-07-26T10:31:42.132Z,38.94
2022-07-26T10:36:42.636Z,38.47
2022-07-26T10:41:40.299Z,38.26
2022-07-26T10:46:37.191Z,36.40
2022-07-26T10:51:35.307Z,37.74
2022-07-26T10:56:33.362Z,38.06
2022-07-26T11:01:38.746Z,39.23
2022-07-26T11:06:32.721Z,41.00
2022-07-26T11:11:31.040Z,41.62
2022-07-26T11:16:29.780Z,42.88
2022-07-26T11:21:26.502Z,43.03
2022-07-26T11:26:23.611Z,44.22
2022-07-26T11:31:23.654Z,44.39
2022-07-26T11:36:46.920Z,44.25
2022-07-26T11:41:41.994Z,44.94
2022-07-26T11:46:50.268Z,45.03
2022-07-26T11:52:01.158Z,45.34
2022-07-26T11:56:59.593Z,45.56
2022-07-26T12:01:54.304Z,45.17
2022-07-26T12:06:52.047Z,45.83
2022-07-26T12:11:48.254Z,45.36
2022-07-26T12:16:43.012Z,46.05
2022-07-26T12:21:44.365Z,45.71
2022-07-26T12:26:40.989Z,46.07
2022-07-26T12:31:39.916Z,45.52
2022-07-26T12:36:35.507Z,45.96
2022-07-26T12:41:37.488Z,45.79
2022-07-26T12:46:34.597Z,46.06
2022-07-26T12:51:32.529Z,46.32
2022-07-26T12:56:26.122Z,46.24
2022-07-26T13:01:19.757Z,46.61
2022-07-26T13:06:14.530Z,46.88
2022-07-26T13:11:09.813Z,46.56
2022-07-26T13:16:06.654Z,46.72
2022-07-26T13:21:02.926Z,47.49
2022-07-26T13:25:56.344Z,47.09
2022-07-26T13:30:52.118Z,46.82
2022-07-26T13:35:45.569Z,47.53
2022-07-26T13:40:43.688Z,46.88
2022-07-26T13:45:55.940Z,46.38
2022-07-26T13:50:49.965Z,46.76
2022-07-26T13:55:47.289Z,47.39
2022-07-26T14:00:42.172Z,47.05
2022-07-26T14:05:36.905Z,46.86
2022-07-26T14:10:30.277Z,46.29
2022-07-26T14:15:23.857Z,45.95
2022-07-26T14:20:20.008Z,45.17
2022-07-26T14:25:15.207Z,45.35
2022-07-26T14:30:09.065Z,45.70
2022-07-26T14:35:02.509Z,44.89
2022-07-26T14:39:56.079Z,44.04
2022-07-26T14:44:52.928Z,42.80
2022-07-26T14:49:46.072Z,41.85
2022-07-26T14:54:40.318Z,39.87
2022-07-26T14:59:33.882Z,40.56
2022-07-26T15:04:35.590Z,39.64
2022-07-26T15:09:31.620Z,39.41
2022-07-26T15:14:33.203Z,38.74
2022-07-26T15:19:32.171Z,38.11
2022-07-26T15:24:39.561Z,37.70
2022-07-26T15:29:37.461Z,38.34
2022-07-26T15:34:42.280Z,37.40
2022-07-26T15:39:52.594Z,37.90
2022-07-26T15:44:48.011Z,37.63
2022-07-26T15:49:41.731Z,37.37
2022-07-26T15:54:39.528Z,37.54
2022-07-26T15:59:33.129Z,36.33
2022-07-26T16:04:29.698Z,37.33
2022-07-26T16:09:23.246Z,36.99
2022-07-26T16:14:18.773Z,36.33
2022-07-26T16:19:15.735Z,36.10
2022-07-26T16:24:19.499Z,35.93
2022-07-26T16:29:16.017Z,36.42
2022-07-26T16:34:15.998Z,35.50
2022-07-26T16:39:14.018Z,36.68
2022-07-26T16:44:17.583Z,36.62
2022-07-26T16:49:18.680Z,35.51
2022-07-26T16:54:12.297Z,35.48
2022-07-26T16:59:10.301Z,35.20
2022-07-26T17:04:04.634Z,36.12
2022-07-26T17:08:59.474Z,35.51
2022-07-26T17:13:55.113Z,36.29
2022-07-26T17:18:48.754Z,36.23
2022-07-26T17:23:48.068Z,35.80
2022-07-26T17:28:46.085Z,35.14
2022-07-26T17:33:44.226Z,34.85
2022-07-26T17:38:40.954Z,35.07
2022-07-26T17:43:40.551Z,34.54
2022-07-26T17:48:35.356Z,34.92
2022-07-26T17:53:32.058Z,34.68
2022-07-26T17:58:28.296Z,34.24
2022-07-26T18:03:23.364Z,33.87
2022-07-26T18:08:27.303Z,34.70
2022-07-26T18:13:20.786Z,34.00
2022-07-26T18:18:28.001Z,33.56
2022-07-26T18:23:23.845Z,33.66
2022-07-26T18:28:17.637Z,34.50
2022-07-26T18:33:17.772Z,33.71
2022-07-26T18:38:11.265Z,33.09
2022-07-26T18:43:06.175Z,33.44
2022-07-26T18:48:02.434Z,33.73
2022-07-26T18:52:57.034Z,34.10
2022-07-26T18:57:55.909Z,33.45
2022-07-26T19:02:54.833Z,33.46
2022-07-26T19:07:48.512Z,33.09
2022-07-26T19:12:50.200Z,33.30
2022-07-26T19:17:46.862Z,33.28
2022-07-26T19:22:44.286Z,34.01
2022-07-26T19:27:38.839Z,32.79
2022-07-26T19:32:33.760Z,33.16
2022-07-26T19:37:37.618Z,33.38
2022-07-26T19:42:33.192Z,32.93
2022-07-26T19:47:26.899Z,32.97
2022-07-26T19:52:20.689Z,32.23
2022-07-26T19:57:14.810Z,32.91
2022-07-26T20:02:09.895Z,33.52
2022-07-26T20:07:07.465Z,33.37
2022-07-26T20:12:01.777Z,32.90
2022-07-26T20:16:57.200Z,32.56
2022-07-26T20:21:53.005Z,32.14
2022-07-26T20:26:46.663Z,30.78
2022-07-26T20:31:40.539Z,31.11
2022-07-26T20:36:39.062Z,30.72
2022-07-26T20:41:37.831Z,31.21
2022-07-26T20:46:42.965Z,30.98
2022-07-26T20:51:49.492Z,29.50
2022-07-26T20:56:52.660Z,30.02
2022-07-26T21:01:50.918Z,30.81
2022-07-26T21:06:45.964Z,30.40
2022-07-26T21:11:42.662Z,30.91
2022-07-26T21:17:40.042Z,29.94
2022-07-26T21:22:18.471Z,30.31
2022-07-26T21:27:44.570Z,30.52
2022-07-26T21:33:02.791Z,30.55
2022-07-26T21:38:18.655Z,30.42
2022-07-26T21:43:34.023Z,31.13
2022-07-26T21:48:29.074Z,31.16
2022-07-26T21:53:27.806Z,31.43
2022-07-26T21:58:27.759Z,30.20
2022-07-26T22:03:21.709Z,30.37
2022-07-26T22:08:17.253Z,31.07
2022-07-26T22:13:12.269Z,30.58
2022-07-26T22:18:06.884Z,30.46
2022-07-26T22:23:03.954Z,30.17
2022-07-26T22:27:59.508Z,30.56
2022-07-26T22:32:59.585Z,29.64
2022-07-26T22:37:56.417Z,30.59
2022-07-26T22:42:50.189Z,30.02
2022-07-26T22:47:55.755Z,29.50
2022-07-26T22:52:49.893Z,30.53
2022-07-26T22:57:43.660Z,30.14
2022-07-26T23:02:37.542Z,30.08
2022-07-26T23:07:33.476Z,29.56
2022-07-26T23:12:30.971Z,28.98
2022-07-26T23:17:24.410Z,30.15
2022-07-26T23:22:18.007Z,29.78
2022-07-26T23:27:18.063Z,29.66
2022-07-26T23:32:13.210Z,29.59
2022-07-26T23:37:06.791Z,28.85
2022-07-26T23:42:02.896Z,29.08
2022-07-26T23:46:57.826Z,29.53
2022-07-26T23:51:51.839Z,29.13
2022-07-26T23:56:45.938Z,28.60
